sensor_id;sensor_type;location;lat;lon;timestamp;P1;durP1;ratioP1;P2;durP2;ratioP2
7971;SDS011;4031;49.758;6.120;2022-12-07T00:01:31;17.00;;;9.83;;
7971;SDS011;4031;49.758;6.120;2022-12-07T00:04:01;13.87;;;9.00;;
7971;SDS011;4031;49.758;6.120;2022-12-07T00:06:30;17.60;;;9.23;;
7971;SDS011;4031;49.758;6.120;2022-12-07T00:09:01;14.43;;;8.57;;
7971;SDS011;4031;49.758;6.120;2022-12-07T00:11:29;15.00;;;10.13;;
7971;SDS011;4031;49.758;6.120;2022-12-07T00:13:56;14.17;;;8.40;;
7971;SDS011;4031;49.758;6.120;2022-12-07T00:16:25;16.63;;;9.70;;
7971;SDS011;4031;49.758;6.120;2022-12-07T00:18:55;11.53;;;8.63;;
7971;SDS011;4031;49.758;6.120;2022-12-07T00:21:22;13.37;;;8.90;;
7971;SDS011;4031;49.758;6.120;2022-12-07T00:23:54;11.93;;;8.13;;
7971;SDS011;4031;49.758;6.120;2022-12-07T00:26:22;15.10;;;9.40;;
7971;SDS011;4031;49.758;6.120;2022-12-07T00:28:54;15.67;;;8.97;;
7971;SDS011;4031;49.758;6.120;2022-12-07T00:31:23;18.63;;;9.30;;
7971;SDS011;4031;49.758;6.120;2022-12-07T00:33:52;19.20;;;9.83;;
7971;SDS011;4031;49.758;6.120;2022-12-07T00:36:19;19.70;;;10.03;;
7971;SDS011;4031;49.758;6.120;2022-12-07T00:38:48;15.60;;;9.17;;
7971;SDS011;4031;49.758;6.120;2022-12-07T00:41:15;14.10;;;8.53;;
7971;SDS011;4031;49.758;6.120;2022-12-07T00:43:43;17.60;;;9.27;;
7971;SDS011;4031;49.758;6.120;2022-12-07T00:46:10;14.20;;;9.80;;
7971;SDS011;4031;49.758;6.120;2022-12-07T00:48:37;16.90;;;9.03;;
7971;SDS011;4031;49.758;6.120;2022-12-07T00:51:04;16.37;;;10.10;;
7971;SDS011;4031;49.758;6.120;2022-12-07T00:53:30;18.13;;;10.20;;
7971;SDS011;4031;49.758;6.120;2022-12-07T00:56:04;11.37;;;8.43;;
7971;SDS011;4031;49.758;6.120;2022-12-07T00:58:31;14.50;;;8.13;;
7971;SDS011;4031;49.758;6.120;2022-12-07T01:00:59;13.93;;;8.83;;
7971;SDS011;4031;49.758;6.120;2022-12-07T01:03:30;14.07;;;8.67;;
7971;SDS011;4031;49.758;6.120;2022-12-07T01:05:56;14.83;;;8.33;;
7971;SDS011;4031;49.758;6.120;2022-12-07T01:08:23;15.83;;;10.73;;
7971;SDS011;4031;49.758;6.120;2022-12-07T01:10:57;16.10;;;9.23;;
7971;SDS011;4031;49.758;6.120;2022-12-07T01:13:34;14.30;;;9.57;;
7971;SDS011;4031;49.758;6.120;2022-12-07T01:16:01;17.17;;;10.73;;
7971;SDS011;4031;49.758;6.120;2022-12-07T01:18:30;20.73;;;9.60;;
7971;SDS011;4031;49.758;6.120;2022-12-07T01:23:38;22.50;;;9.77;;
7971;SDS011;4031;49.758;6.120;2022-12-07T01:26:06;17.63;;;9.80;;
7971;SDS011;4031;49.758;6.120;2022-12-07T01:28:36;25.93;;;13.40;;
7971;SDS011;4031;49.758;6.120;2022-12-07T01:31:03;29.97;;;13.80;;
7971;SDS011;4031;49.758;6.120;2022-12-07T01:33:37;33.63;;;13.27;;
7971;SDS011;4031;49.758;6.120;2022-12-07T01:36:05;23.80;;;10.87;;
7971;SDS011;4031;49.758;6.120;2022-12-07T01:38:33;26.27;;;11.70;;
7971;SDS011;4031;49.758;6.120;2022-12-07T01:41:00;22.70;;;12.13;;
7971;SDS011;4031;49.758;6.120;2022-12-07T01:43:28;37.00;;;12.87;;
7971;SDS011;4031;49.758;6.120;2022-12-07T01:45:55;23.10;;;12.00;;
7971;SDS011;4031;49.758;6.120;2022-12-07T01:48:31;23.80;;;12.47;;
7971;SDS011;4031;49.758;6.120;2022-12-07T01:51:06;32.23;;;15.33;;
7971;SDS011;4031;49.758;6.120;2022-12-07T01:53:37;30.10;;;15.10;;
7971;SDS011;4031;49.758;6.120;2022-12-07T01:56:09;25.30;;;14.10;;
7971;SDS011;4031;49.758;6.120;2022-12-07T01:58:42;33.17;;;13.77;;
7971;SDS011;4031;49.758;6.120;2022-12-07T02:01:09;31.80;;;14.63;;
7971;SDS011;4031;49.758;6.120;2022-12-07T02:03:36;24.30;;;13.30;;
7971;SDS011;4031;49.758;6.120;2022-12-07T02:06:05;30.30;;;14.80;;
7971;SDS011;4031;49.758;6.120;2022-12-07T02:08:33;29.13;;;14.97;;
7971;SDS011;4031;49.758;6.120;2022-12-07T02:11:00;33.50;;;13.43;;
7971;SDS011;4031;49.758;6.120;2022-12-07T02:13:28;27.53;;;13.37;;
7971;SDS011;4031;49.758;6.120;2022-12-07T02:28:07;22.83;;;11.30;;
7971;SDS011;4031;49.758;6.120;2022-12-07T02:30:48;21.53;;;10.97;;
7971;SDS011;4031;49.758;6.120;2022-12-07T02:33:24;27.13;;;11.73;;
7971;SDS011;4031;49.758;6.120;2022-12-07T02:36:01;25.07;;;12.83;;
7971;SDS011;4031;49.758;6.120;2022-12-07T02:38:43;21.23;;;11.20;;
7971;SDS011;4031;49.758;6.120;2022-12-07T02:41:21;20.97;;;11.27;;
7971;SDS011;4031;49.758;6.120;2022-12-07T02:43:56;19.30;;;10.33;;
7971;SDS011;4031;49.758;6.120;2022-12-07T02:46:27;18.47;;;11.27;;
7971;SDS011;4031;49.758;6.120;2022-12-07T02:48:56;20.57;;;11.37;;
7971;SDS011;4031;49.758;6.120;2022-12-07T02:51:24;20.93;;;9.87;;
7971;SDS011;4031;49.758;6.120;2022-12-07T02:53:50;23.47;;;11.30;;
7971;SDS011;4031;49.758;6.120;2022-12-07T02:59:11;18.17;;;9.43;;
7971;SDS011;4031;49.758;6.120;2022-12-07T03:16:16;23.93;;;9.90;;
7971;SDS011;4031;49.758;6.120;2022-12-07T03:18:54;20.20;;;9.13;;
7971;SDS011;4031;49.758;6.120;2022-12-07T03:21:29;14.97;;;9.43;;
7971;SDS011;4031;49.758;6.120;2022-12-07T03:24:02;16.00;;;8.50;;
7971;SDS011;4031;49.758;6.120;2022-12-07T03:26:35;13.30;;;9.87;;
7971;SDS011;4031;49.758;6.120;2022-12-07T03:29:26;14.60;;;8.40;;
7971;SDS011;4031;49.758;6.120;2022-12-07T03:34:40;16.07;;;9.50;;
7971;SDS011;4031;49.758;6.120;2022-12-07T03:37:33;11.80;;;8.27;;
7971;SDS011;4031;49.758;6.120;2022-12-07T03:42:51;14.83;;;8.30;;
7971;SDS011;4031;49.758;6.120;2022-12-07T03:45:18;16.47;;;8.30;;
7971;SDS011;4031;49.758;6.120;2022-12-07T03:48:03;16.00;;;8.30;;
7971;SDS011;4031;49.758;6.120;2022-12-07T03:53:54;12.83;;;7.93;;
7971;SDS011;4031;49.758;6.120;2022-12-07T03:56:30;15.87;;;9.77;;
7971;SDS011;4031;49.758;6.120;2022-12-07T03:58:57;17.57;;;9.20;;
7971;SDS011;4031;49.758;6.120;2022-12-07T04:01:23;13.07;;;7.90;;
7971;SDS011;4031;49.758;6.120;2022-12-07T04:03:49;15.50;;;8.70;;
7971;SDS011;4031;49.758;6.120;2022-12-07T04:06:15;15.43;;;9.70;;
7971;SDS011;4031;49.758;6.120;2022-12-07T04:08:42;16.10;;;9.30;;
7971;SDS011;4031;49.758;6.120;2022-12-07T04:11:08;17.53;;;10.37;;
7971;SDS011;4031;49.758;6.120;2022-12-07T04:13:33;19.90;;;10.80;;
7971;SDS011;4031;49.758;6.120;2022-12-07T04:16:19;15.83;;;9.83;;
7971;SDS011;4031;49.758;6.120;2022-12-07T04:18:45;13.70;;;8.73;;
7971;SDS011;4031;49.758;6.120;2022-12-07T04:21:11;16.97;;;10.03;;
7971;SDS011;4031;49.758;6.120;2022-12-07T04:23:37;15.50;;;8.63;;
7971;SDS011;4031;49.758;6.120;2022-12-07T04:26:02;15.67;;;8.40;;
7971;SDS011;4031;49.758;6.120;2022-12-07T04:28:28;15.47;;;9.03;;
7971;SDS011;4031;49.758;6.120;2022-12-07T04:30:54;15.57;;;8.53;;
7971;SDS011;4031;49.758;6.120;2022-12-07T04:33:19;16.70;;;9.47;;
7971;SDS011;4031;49.758;6.120;2022-12-07T04:35:45;18.40;;;8.73;;
7971;SDS011;4031;49.758;6.120;2022-12-07T04:38:11;15.90;;;8.40;;
7971;SDS011;4031;49.758;6.120;2022-12-07T04:40:36;15.27;;;9.60;;
7971;SDS011;4031;49.758;6.120;2022-12-07T04:43:02;20.83;;;9.87;;
7971;SDS011;4031;49.758;6.120;2022-12-07T04:45:29;15.93;;;9.03;;
7971;SDS011;4031;49.758;6.120;2022-12-07T04:47:55;13.53;;;8.77;;
7971;SDS011;4031;49.758;6.120;2022-12-07T04:50:21;16.33;;;9.50;;
7971;SDS011;4031;49.758;6.120;2022-12-07T04:52:46;15.07;;;8.90;;
7971;SDS011;4031;49.758;6.120;2022-12-07T04:55:12;15.93;;;9.73;;
7971;SDS011;4031;49.758;6.120;2022-12-07T04:57:38;13.37;;;8.07;;
7971;SDS011;4031;49.758;6.120;2022-12-07T05:00:04;17.40;;;9.70;;
7971;SDS011;4031;49.758;6.120;2022-12-07T05:02:30;17.40;;;9.37;;
7971;SDS011;4031;49.758;6.120;2022-12-07T05:04:56;19.80;;;9.97;;
7971;SDS011;4031;49.758;6.120;2022-12-07T05:07:22;15.80;;;8.30;;
7971;SDS011;4031;49.758;6.120;2022-12-07T05:09:47;22.53;;;9.20;;
7971;SDS011;4031;49.758;6.120;2022-12-07T05:12:13;19.20;;;9.53;;
7971;SDS011;4031;49.758;6.120;2022-12-07T05:14:39;17.03;;;9.23;;
7971;SDS011;4031;49.758;6.120;2022-12-07T05:17:04;23.07;;;11.00;;
7971;SDS011;4031;49.758;6.120;2022-12-07T05:19:30;19.23;;;9.80;;
7971;SDS011;4031;49.758;6.120;2022-12-07T05:21:56;15.23;;;9.03;;
7971;SDS011;4031;49.758;6.120;2022-12-07T05:24:22;22.30;;;10.97;;
7971;SDS011;4031;49.758;6.120;2022-12-07T05:26:47;18.73;;;10.30;;
7971;SDS011;4031;49.758;6.120;2022-12-07T05:29:14;20.90;;;10.20;;
7971;SDS011;4031;49.758;6.120;2022-12-07T05:31:41;20.97;;;10.40;;
7971;SDS011;4031;49.758;6.120;2022-12-07T05:34:08;19.70;;;10.27;;
7971;SDS011;4031;49.758;6.120;2022-12-07T05:36:34;20.53;;;10.93;;
7971;SDS011;4031;49.758;6.120;2022-12-07T05:39:00;21.53;;;10.93;;
7971;SDS011;4031;49.758;6.120;2022-12-07T05:41:26;25.83;;;10.13;;
7971;SDS011;4031;49.758;6.120;2022-12-07T05:44:10;18.53;;;10.77;;
7971;SDS011;4031;49.758;6.120;2022-12-07T05:46:36;22.63;;;10.93;;
7971;SDS011;4031;49.758;6.120;2022-12-07T05:49:02;20.70;;;10.57;;
7971;SDS011;4031;49.758;6.120;2022-12-07T05:51:28;17.97;;;10.77;;
7971;SDS011;4031;49.758;6.120;2022-12-07T05:53:54;20.13;;;9.67;;
7971;SDS011;4031;49.758;6.120;2022-12-07T05:56:20;19.50;;;10.60;;
7971;SDS011;4031;49.758;6.120;2022-12-07T05:58:45;23.47;;;11.17;;
7971;SDS011;4031;49.758;6.120;2022-12-07T06:01:30;18.50;;;10.60;;
7971;SDS011;4031;49.758;6.120;2022-12-07T06:03:56;20.57;;;9.33;;
7971;SDS011;4031;49.758;6.120;2022-12-07T06:06:21;16.07;;;10.40;;
7971;SDS011;4031;49.758;6.120;2022-12-07T06:08:47;20.50;;;11.37;;
7971;SDS011;4031;49.758;6.120;2022-12-07T06:11:13;30.93;;;13.83;;
7971;SDS011;4031;49.758;6.120;2022-12-07T06:13:57;26.03;;;16.50;;
7971;SDS011;4031;49.758;6.120;2022-12-07T06:16:23;29.33;;;15.50;;
7971;SDS011;4031;49.758;6.120;2022-12-07T06:18:48;23.87;;;12.87;;
7971;SDS011;4031;49.758;6.120;2022-12-07T06:21:14;22.50;;;10.83;;
7971;SDS011;4031;49.758;6.120;2022-12-07T06:23:40;17.43;;;9.80;;
7971;SDS011;4031;49.758;6.120;2022-12-07T06:26:06;15.80;;;10.63;;
7971;SDS011;4031;49.758;6.120;2022-12-07T06:28:32;21.33;;;9.70;;
7971;SDS011;4031;49.758;6.120;2022-12-07T06:30:58;27.27;;;12.93;;
7971;SDS011;4031;49.758;6.120;2022-12-07T06:33:28;21.90;;;10.83;;
7971;SDS011;4031;49.758;6.120;2022-12-07T06:35:54;18.87;;;9.90;;
7971;SDS011;4031;49.758;6.120;2022-12-07T06:38:20;20.37;;;10.73;;
7971;SDS011;4031;49.758;6.120;2022-12-07T06:40:46;26.40;;;10.00;;
7971;SDS011;4031;49.758;6.120;2022-12-07T06:43:13;20.77;;;14.20;;
7971;SDS011;4031;49.758;6.120;2022-12-07T06:45:38;22.90;;;10.20;;
7971;SDS011;4031;49.758;6.120;2022-12-07T06:48:06;19.73;;;11.77;;
7971;SDS011;4031;49.758;6.120;2022-12-07T06:50:31;17.47;;;11.07;;
7971;SDS011;4031;49.758;6.120;2022-12-07T06:52:57;22.43;;;11.50;;
7971;SDS011;4031;49.758;6.120;2022-12-07T06:55:23;25.27;;;12.23;;
7971;SDS011;4031;49.758;6.120;2022-12-07T06:57:49;28.73;;;11.43;;
7971;SDS011;4031;49.758;6.120;2022-12-07T07:00:14;20.77;;;10.80;;
7971;SDS011;4031;49.758;6.120;2022-12-07T07:02:41;24.23;;;10.83;;
7971;SDS011;4031;49.758;6.120;2022-12-07T07:05:06;19.20;;;10.37;;
7971;SDS011;4031;49.758;6.120;2022-12-07T07:07:32;22.50;;;10.47;;
7971;SDS011;4031;49.758;6.120;2022-12-07T07:09:58;23.27;;;10.30;;
7971;SDS011;4031;49.758;6.120;2022-12-07T07:12:24;23.77;;;12.43;;
7971;SDS011;4031;49.758;6.120;2022-12-07T07:14:49;17.87;;;10.70;;
7971;SDS011;4031;49.758;6.120;2022-12-07T07:17:15;21.50;;;10.67;;
7971;SDS011;4031;49.758;6.120;2022-12-07T07:19:41;22.20;;;11.57;;
7971;SDS011;4031;49.758;6.120;2022-12-07T07:22:07;23.90;;;11.70;;
7971;SDS011;4031;49.758;6.120;2022-12-07T07:24:32;22.33;;;11.27;;
7971;SDS011;4031;49.758;6.120;2022-12-07T07:26:58;18.20;;;10.40;;
7971;SDS011;4031;49.758;6.120;2022-12-07T07:29:24;22.40;;;10.40;;
7971;SDS011;4031;49.758;6.120;2022-12-07T07:31:49;19.70;;;10.40;;
7971;SDS011;4031;49.758;6.120;2022-12-07T07:34:15;25.50;;;12.30;;
7971;SDS011;4031;49.758;6.120;2022-12-07T07:36:41;24.37;;;12.17;;
7971;SDS011;4031;49.758;6.120;2022-12-07T07:39:07;22.07;;;10.77;;
7971;SDS011;4031;49.758;6.120;2022-12-07T07:41:32;24.43;;;11.23;;
7971;SDS011;4031;49.758;6.120;2022-12-07T07:43:58;19.93;;;9.57;;
7971;SDS011;4031;49.758;6.120;2022-12-07T07:46:24;21.60;;;11.10;;
7971;SDS011;4031;49.758;6.120;2022-12-07T07:48:49;19.10;;;10.00;;
7971;SDS011;4031;49.758;6.120;2022-12-07T07:51:15;22.13;;;11.07;;
7971;SDS011;4031;49.758;6.120;2022-12-07T07:53:41;22.83;;;11.23;;
7971;SDS011;4031;49.758;6.120;2022-12-07T07:56:06;17.83;;;10.97;;
7971;SDS011;4031;49.758;6.120;2022-12-07T07:58:32;18.57;;;9.50;;
7971;SDS011;4031;49.758;6.120;2022-12-07T08:01:03;24.30;;;11.67;;
7971;SDS011;4031;49.758;6.120;2022-12-07T08:03:30;20.80;;;11.40;;
7971;SDS011;4031;49.758;6.120;2022-12-07T08:05:56;21.30;;;10.67;;
7971;SDS011;4031;49.758;6.120;2022-12-07T08:08:22;17.10;;;10.10;;
7971;SDS011;4031;49.758;6.120;2022-12-07T08:10:47;21.47;;;10.90;;
7971;SDS011;4031;49.758;6.120;2022-12-07T08:13:15;22.73;;;10.13;;
7971;SDS011;4031;49.758;6.120;2022-12-07T08:15:45;20.17;;;10.33;;
7971;SDS011;4031;49.758;6.120;2022-12-07T08:18:13;20.17;;;11.47;;
7971;SDS011;4031;49.758;6.120;2022-12-07T08:20:40;18.97;;;11.50;;
7971;SDS011;4031;49.758;6.120;2022-12-07T08:23:07;21.40;;;11.27;;
7971;SDS011;4031;49.758;6.120;2022-12-07T08:25:35;18.87;;;9.90;;
7971;SDS011;4031;49.758;6.120;2022-12-07T08:28:01;20.57;;;9.90;;
7971;SDS011;4031;49.758;6.120;2022-12-07T08:30:27;17.27;;;9.90;;
7971;SDS011;4031;49.758;6.120;2022-12-07T08:32:54;17.50;;;9.93;;
7971;SDS011;4031;49.758;6.120;2022-12-07T08:35:21;22.70;;;10.87;;
7971;SDS011;4031;49.758;6.120;2022-12-07T08:37:46;23.57;;;10.23;;
7971;SDS011;4031;49.758;6.120;2022-12-07T08:40:13;14.40;;;7.40;;
7971;SDS011;4031;49.758;6.120;2022-12-07T08:42:43;19.53;;;10.00;;
7971;SDS011;4031;49.758;6.120;2022-12-07T08:45:14;18.97;;;8.90;;
7971;SDS011;4031;49.758;6.120;2022-12-07T08:47:42;17.27;;;10.33;;
7971;SDS011;4031;49.758;6.120;2022-12-07T08:50:14;16.40;;;9.43;;
7971;SDS011;4031;49.758;6.120;2022-12-07T08:52:41;20.07;;;9.70;;
7971;SDS011;4031;49.758;6.120;2022-12-07T08:55:08;14.40;;;9.20;;
7971;SDS011;4031;49.758;6.120;2022-12-07T08:57:36;17.27;;;9.20;;
7971;SDS011;4031;49.758;6.120;2022-12-07T09:00:03;13.00;;;7.53;;
7971;SDS011;4031;49.758;6.120;2022-12-07T09:02:31;18.67;;;8.97;;
7971;SDS011;4031;49.758;6.120;2022-12-07T09:04:57;12.13;;;8.60;;
7971;SDS011;4031;49.758;6.120;2022-12-07T09:07:23;11.80;;;9.23;;
7971;SDS011;4031;49.758;6.120;2022-12-07T09:09:50;11.73;;;6.60;;
7971;SDS011;4031;49.758;6.120;2022-12-07T09:12:16;16.67;;;8.00;;
7971;SDS011;4031;49.758;6.120;2022-12-07T09:14:41;11.90;;;6.63;;
7971;SDS011;4031;49.758;6.120;2022-12-07T09:17:07;13.83;;;7.77;;
7971;SDS011;4031;49.758;6.120;2022-12-07T09:19:36;11.47;;;6.17;;
7971;SDS011;4031;49.758;6.120;2022-12-07T09:22:03;11.43;;;6.33;;
7971;SDS011;4031;49.758;6.120;2022-12-07T09:24:30;11.23;;;6.90;;
7971;SDS011;4031;49.758;6.120;2022-12-07T09:26:56;9.90;;;6.80;;
7971;SDS011;4031;49.758;6.120;2022-12-07T09:29:23;10.33;;;5.90;;
7971;SDS011;4031;49.758;6.120;2022-12-07T09:31:49;11.20;;;5.57;;
7971;SDS011;4031;49.758;6.120;2022-12-07T09:34:16;10.40;;;5.60;;
7971;SDS011;4031;49.758;6.120;2022-12-07T09:36:42;8.07;;;5.83;;
7971;SDS011;4031;49.758;6.120;2022-12-07T09:39:08;12.47;;;6.83;;
7971;SDS011;4031;49.758;6.120;2022-12-07T09:41:37;8.97;;;5.93;;
7971;SDS011;4031;49.758;6.120;2022-12-07T09:44:07;10.00;;;5.90;;
7971;SDS011;4031;49.758;6.120;2022-12-07T09:46:48;11.77;;;5.63;;
7971;SDS011;4031;49.758;6.120;2022-12-07T09:49:17;9.63;;;5.57;;
7971;SDS011;4031;49.758;6.120;2022-12-07T09:51:59;10.27;;;5.73;;
7971;SDS011;4031;49.758;6.120;2022-12-07T09:54:47;8.73;;;5.67;;
7971;SDS011;4031;49.758;6.120;2022-12-07T09:57:15;10.87;;;5.87;;
7971;SDS011;4031;49.758;6.120;2022-12-07T09:59:41;11.67;;;5.83;;
7971;SDS011;4031;49.758;6.120;2022-12-07T10:02:19;11.47;;;4.73;;
7971;SDS011;4031;49.758;6.120;2022-12-07T10:04:59;7.60;;;4.30;;
7971;SDS011;4031;49.758;6.120;2022-12-07T10:07:26;9.10;;;5.70;;
7971;SDS011;4031;49.758;6.120;2022-12-07T10:09:51;9.13;;;5.33;;
7971;SDS011;4031;49.758;6.120;2022-12-07T10:12:17;8.90;;;4.90;;
7971;SDS011;4031;49.758;6.120;2022-12-07T10:14:57;9.37;;;5.40;;
7971;SDS011;4031;49.758;6.120;2022-12-07T10:17:40;7.20;;;5.53;;
7971;SDS011;4031;49.758;6.120;2022-12-07T10:23:05;10.83;;;6.13;;
7971;SDS011;4031;49.758;6.120;2022-12-07T10:25:39;6.30;;;4.77;;
7971;SDS011;4031;49.758;6.120;2022-12-07T10:28:13;10.63;;;5.10;;
7971;SDS011;4031;49.758;6.120;2022-12-07T10:31:02;7.77;;;5.50;;
7971;SDS011;4031;49.758;6.120;2022-12-07T10:33:59;9.33;;;5.40;;
7971;SDS011;4031;49.758;6.120;2022-12-07T10:36:36;11.23;;;6.13;;
7971;SDS011;4031;49.758;6.120;2022-12-07T10:39:10;11.13;;;5.70;;
7971;SDS011;4031;49.758;6.120;2022-12-07T10:41:52;10.37;;;5.67;;
7971;SDS011;4031;49.758;6.120;2022-12-07T10:44:30;8.27;;;5.20;;
7971;SDS011;4031;49.758;6.120;2022-12-07T10:50:12;9.10;;;5.97;;
7971;SDS011;4031;49.758;6.120;2022-12-07T10:53:01;9.30;;;5.33;;
7971;SDS011;4031;49.758;6.120;2022-12-07T11:01:10;6.73;;;4.80;;
7971;SDS011;4031;49.758;6.120;2022-12-07T11:07:22;7.60;;;5.23;;
7971;SDS011;4031;49.758;6.120;2022-12-07T11:13:29;7.40;;;4.33;;
7971;SDS011;4031;49.758;6.120;2022-12-07T11:16:23;6.07;;;4.20;;
7971;SDS011;4031;49.758;6.120;2022-12-07T11:24:25;4.80;;;4.23;;
7971;SDS011;4031;49.758;6.120;2022-12-07T11:30:34;4.03;;;3.63;;
7971;SDS011;4031;49.758;6.120;2022-12-07T11:33:33;3.83;;;3.13;;
7971;SDS011;4031;49.758;6.120;2022-12-07T11:39:26;6.03;;;3.77;;
7971;SDS011;4031;49.758;6.120;2022-12-07T11:42:16;7.63;;;4.67;;
7971;SDS011;4031;49.758;6.120;2022-12-07T11:47:38;4.80;;;3.40;;
7971;SDS011;4031;49.758;6.120;2022-12-07T11:50:51;5.23;;;3.60;;
7971;SDS011;4031;49.758;6.120;2022-12-07T11:56:19;6.63;;;4.20;;
7971;SDS011;4031;49.758;6.120;2022-12-07T12:04:07;6.60;;;2.87;;
7971;SDS011;4031;49.758;6.120;2022-12-07T12:06:52;4.30;;;3.17;;
7971;SDS011;4031;49.758;6.120;2022-12-07T12:09:29;3.30;;;3.00;;
7971;SDS011;4031;49.758;6.120;2022-12-07T12:21:39;4.23;;;2.93;;
7971;SDS011;4031;49.758;6.120;2022-12-07T12:24:14;9.00;;;4.10;;
7971;SDS011;4031;49.758;6.120;2022-12-07T12:26:51;4.40;;;3.30;;
7971;SDS011;4031;49.758;6.120;2022-12-07T12:29:33;8.33;;;4.20;;
7971;SDS011;4031;49.758;6.120;2022-12-07T12:32:16;3.07;;;2.70;;
7971;SDS011;4031;49.758;6.120;2022-12-07T12:37:46;2.47;;;2.27;;
7971;SDS011;4031;49.758;6.120;2022-12-07T12:42:51;3.67;;;3.37;;
7971;SDS011;4031;49.758;6.120;2022-12-07T12:45:23;3.23;;;2.97;;
7971;SDS011;4031;49.758;6.120;2022-12-07T12:48:02;5.10;;;3.10;;
7971;SDS011;4031;49.758;6.120;2022-12-07T12:50:33;3.23;;;2.60;;
7971;SDS011;4031;49.758;6.120;2022-12-07T12:58:41;3.73;;;2.60;;
7971;SDS011;4031;49.758;6.120;2022-12-07T13:04:00;3.20;;;2.80;;
7971;SDS011;4031;49.758;6.120;2022-12-07T13:06:34;4.33;;;2.60;;
7971;SDS011;4031;49.758;6.120;2022-12-07T13:09:03;3.70;;;3.10;;
7971;SDS011;4031;49.758;6.120;2022-12-07T13:11:44;4.97;;;3.30;;
7971;SDS011;4031;49.758;6.120;2022-12-07T13:24:57;4.30;;;2.53;;
7971;SDS011;4031;49.758;6.120;2022-12-07T13:27:28;4.17;;;3.10;;
7971;SDS011;4031;49.758;6.120;2022-12-07T13:29:56;6.70;;;3.03;;
7971;SDS011;4031;49.758;6.120;2022-12-07T13:32:26;3.30;;;2.53;;
7971;SDS011;4031;49.758;6.120;2022-12-07T13:34:54;4.37;;;3.00;;
7971;SDS011;4031;49.758;6.120;2022-12-07T13:39:59;4.50;;;3.30;;
7971;SDS011;4031;49.758;6.120;2022-12-07T13:42:33;3.43;;;2.63;;
7971;SDS011;4031;49.758;6.120;2022-12-07T13:48:35;2.70;;;2.50;;
7971;SDS011;4031;49.758;6.120;2022-12-07T13:51:14;5.17;;;3.10;;
7971;SDS011;4031;49.758;6.120;2022-12-07T13:53:53;2.50;;;2.30;;
7971;SDS011;4031;49.758;6.120;2022-12-07T13:56:40;7.10;;;2.90;;
7971;SDS011;4031;49.758;6.120;2022-12-07T13:59:14;4.50;;;3.20;;
7971;SDS011;4031;49.758;6.120;2022-12-07T14:01:47;3.70;;;3.23;;
7971;SDS011;4031;49.758;6.120;2022-12-07T14:06:55;3.10;;;2.80;;
7971;SDS011;4031;49.758;6.120;2022-12-07T14:09:22;2.77;;;2.57;;
7971;SDS011;4031;49.758;6.120;2022-12-07T14:11:50;5.20;;;3.00;;
7971;SDS011;4031;49.758;6.120;2022-12-07T14:14:23;3.30;;;2.53;;
7971;SDS011;4031;49.758;6.120;2022-12-07T14:17:12;3.83;;;2.40;;
7971;SDS011;4031;49.758;6.120;2022-12-07T14:22:33;2.87;;;2.57;;
7971;SDS011;4031;49.758;6.120;2022-12-07T14:25:02;3.03;;;2.40;;
7971;SDS011;4031;49.758;6.120;2022-12-07T14:27:37;8.37;;;2.30;;
7971;SDS011;4031;49.758;6.120;2022-12-07T14:30:03;3.53;;;2.97;;
7971;SDS011;4031;49.758;6.120;2022-12-07T14:32:31;9.63;;;3.07;;
7971;SDS011;4031;49.758;6.120;2022-12-07T14:35:09;4.57;;;2.70;;
7971;SDS011;4031;49.758;6.120;2022-12-07T14:37:38;4.73;;;2.50;;
7971;SDS011;4031;49.758;6.120;2022-12-07T14:40:07;4.70;;;3.77;;
7971;SDS011;4031;49.758;6.120;2022-12-07T14:42:48;3.23;;;2.40;;
7971;SDS011;4031;49.758;6.120;2022-12-07T14:45:21;4.13;;;3.73;;
7971;SDS011;4031;49.758;6.120;2022-12-07T14:47:48;5.67;;;4.23;;
7971;SDS011;4031;49.758;6.120;2022-12-07T14:50:15;6.90;;;5.90;;
7971;SDS011;4031;49.758;6.120;2022-12-07T14:52:43;7.70;;;5.60;;
7971;SDS011;4031;49.758;6.120;2022-12-07T14:55:26;11.27;;;4.90;;
7971;SDS011;4031;49.758;6.120;2022-12-07T14:57:54;8.00;;;5.83;;
7971;SDS011;4031;49.758;6.120;2022-12-07T15:00:22;6.47;;;4.07;;
7971;SDS011;4031;49.758;6.120;2022-12-07T15:02:50;6.37;;;3.87;;
7971;SDS011;4031;49.758;6.120;2022-12-07T15:05:16;6.93;;;4.37;;
7971;SDS011;4031;49.758;6.120;2022-12-07T15:07:43;18.20;;;9.73;;
7971;SDS011;4031;49.758;6.120;2022-12-07T15:10:14;7.60;;;6.70;;
7971;SDS011;4031;49.758;6.120;2022-12-07T15:12:48;12.17;;;7.77;;
7971;SDS011;4031;49.758;6.120;2022-12-07T15:15:14;11.90;;;6.00;;
7971;SDS011;4031;49.758;6.120;2022-12-07T15:17:40;4.63;;;3.90;;
7971;SDS011;4031;49.758;6.120;2022-12-07T15:20:08;5.40;;;4.20;;
7971;SDS011;4031;49.758;6.120;2022-12-07T15:22:41;10.23;;;3.83;;
7971;SDS011;4031;49.758;6.120;2022-12-07T15:25:08;10.30;;;5.10;;
7971;SDS011;4031;49.758;6.120;2022-12-07T15:27:38;8.10;;;4.00;;
7971;SDS011;4031;49.758;6.120;2022-12-07T15:30:04;7.57;;;4.83;;
7971;SDS011;4031;49.758;6.120;2022-12-07T15:32:30;8.37;;;5.07;;
7971;SDS011;4031;49.758;6.120;2022-12-07T15:34:56;7.03;;;4.40;;
7971;SDS011;4031;49.758;6.120;2022-12-07T15:37:21;6.80;;;3.67;;
7971;SDS011;4031;49.758;6.120;2022-12-07T15:39:47;5.43;;;3.70;;
7971;SDS011;4031;49.758;6.120;2022-12-07T15:42:13;3.73;;;3.30;;
7971;SDS011;4031;49.758;6.120;2022-12-07T15:44:39;9.40;;;3.57;;
7971;SDS011;4031;49.758;6.120;2022-12-07T15:47:23;7.47;;;3.83;;
7971;SDS011;4031;49.758;6.120;2022-12-07T15:49:48;10.63;;;3.77;;
7971;SDS011;4031;49.758;6.120;2022-12-07T15:52:14;6.23;;;4.07;;
7971;SDS011;4031;49.758;6.120;2022-12-07T15:54:40;6.23;;;3.53;;
7971;SDS011;4031;49.758;6.120;2022-12-07T15:57:06;6.10;;;3.70;;
7971;SDS011;4031;49.758;6.120;2022-12-07T15:59:32;2.23;;;2.03;;
7971;SDS011;4031;49.758;6.120;2022-12-07T16:01:58;4.63;;;2.70;;
7971;SDS011;4031;49.758;6.120;2022-12-07T16:04:24;6.23;;;2.57;;
7971;SDS011;4031;49.758;6.120;2022-12-07T16:06:54;4.90;;;3.33;;
7971;SDS011;4031;49.758;6.120;2022-12-07T16:09:19;3.23;;;3.00;;
7971;SDS011;4031;49.758;6.120;2022-12-07T16:11:46;3.53;;;2.80;;
7971;SDS011;4031;49.758;6.120;2022-12-07T16:14:13;5.00;;;2.93;;
7971;SDS011;4031;49.758;6.120;2022-12-07T16:16:39;3.60;;;2.90;;
7971;SDS011;4031;49.758;6.120;2022-12-07T16:19:05;8.00;;;3.60;;
7971;SDS011;4031;49.758;6.120;2022-12-07T16:21:31;4.60;;;2.70;;
7971;SDS011;4031;49.758;6.120;2022-12-07T16:23:59;5.00;;;3.23;;
7971;SDS011;4031;49.758;6.120;2022-12-07T16:26:25;5.13;;;3.33;;
7971;SDS011;4031;49.758;6.120;2022-12-07T16:28:51;5.20;;;3.40;;
7971;SDS011;4031;49.758;6.120;2022-12-07T16:31:19;4.23;;;3.20;;
7971;SDS011;4031;49.758;6.120;2022-12-07T16:33:48;3.70;;;2.60;;
7971;SDS011;4031;49.758;6.120;2022-12-07T16:36:16;4.40;;;3.07;;
7971;SDS011;4031;49.758;6.120;2022-12-07T16:38:43;2.90;;;2.60;;
7971;SDS011;4031;49.758;6.120;2022-12-07T16:41:09;5.70;;;3.33;;
7971;SDS011;4031;49.758;6.120;2022-12-07T16:43:36;5.20;;;3.27;;
7971;SDS011;4031;49.758;6.120;2022-12-07T16:46:02;5.37;;;4.10;;
7971;SDS011;4031;49.758;6.120;2022-12-07T16:48:29;6.50;;;3.87;;
7971;SDS011;4031;49.758;6.120;2022-12-07T16:50:55;7.27;;;3.20;;
7971;SDS011;4031;49.758;6.120;2022-12-07T16:53:21;4.87;;;3.20;;
7971;SDS011;4031;49.758;6.120;2022-12-07T16:55:49;6.40;;;3.37;;
7971;SDS011;4031;49.758;6.120;2022-12-07T16:58:15;6.73;;;3.87;;
7971;SDS011;4031;49.758;6.120;2022-12-07T17:00:42;8.20;;;5.70;;
7971;SDS011;4031;49.758;6.120;2022-12-07T17:03:09;7.07;;;5.00;;
7971;SDS011;4031;49.758;6.120;2022-12-07T17:05:39;11.67;;;5.93;;
7971;SDS011;4031;49.758;6.120;2022-12-07T17:08:07;8.63;;;5.07;;
7971;SDS011;4031;49.758;6.120;2022-12-07T17:10:38;10.13;;;5.27;;
7971;SDS011;4031;49.758;6.120;2022-12-07T17:13:07;8.07;;;5.40;;
7971;SDS011;4031;49.758;6.120;2022-12-07T17:15:58;8.13;;;5.33;;
7971;SDS011;4031;49.758;6.120;2022-12-07T17:18:31;6.47;;;4.60;;
7971;SDS011;4031;49.758;6.120;2022-12-07T17:21:03;7.27;;;5.43;;
7971;SDS011;4031;49.758;6.120;2022-12-07T17:23:31;6.53;;;4.37;;
7971;SDS011;4031;49.758;6.120;2022-12-07T17:26:08;5.20;;;4.27;;
7971;SDS011;4031;49.758;6.120;2022-12-07T17:28:37;6.63;;;3.70;;